sensor_id;sensor_type;location;lat;lon;timestamp;pressure;altitude;pressure_sealevel;temperature;humidity
29239;BME280;16267;48.194;11.546;2023-01-26T00:01:17;96352.03;;;1.04;89.13
29239;BME280;16267;48.194;11.546;2023-01-26T00:03:44;96335.88;;;1.06;88.88
29239;BME280;16267;48.194;11.546;2023-01-26T00:06:13;96343.34;;;1.04;88.14
29239;BME280;16267;48.194;11.546;2023-01-26T00:08:46;96349.41;;;1.04;88.64
29239;BME280;16267;48.194;11.546;2023-01-26T00:11:16;96338.06;;;1.04;88.51
29239;BME280;16267;48.194;11.546;2023-01-26T00:13:43;96338.81;;;1.04;88.59
29239;BME280;16267;48.194;11.546;2023-01-26T00:16:11;96327.47;;;1.04;88.69
29239;BME280;16267;48.194;11.546;2023-01-26T00:18:38;96326.72;;;1.03;89.03
29239;BME280;16267;48.194;11.546;2023-01-26T00:21:06;96324.06;;;1.03;88.96
29239;BME280;16267;48.194;11.546;2023-01-26T00:23:33;96325.59;;;1.04;89.04
29239;BME280;16267;48.194;11.546;2023-01-26T00:26:00;96316.16;;;1.03;88.59
29239;BME280;16267;48.194;11.546;2023-01-26T00:28:27;96319.56;;;1.04;88.90
29239;BME280;16267;48.194;11.546;2023-01-26T00:31:02;96323.31;;;1.03;88.85
29239;BME280;16267;48.194;11.546;2023-01-26T00:33:28;96319.56;;;1.04;89.00
29239;BME280;16267;48.194;11.546;2023-01-26T00:35:54;96318.78;;;1.03;89.02
29239;BME280;16267;48.194;11.546;2023-01-26T00:38:20;96326.72;;;1.03;88.53
29239;BME280;16267;48.194;11.546;2023-01-26T00:40:46;96315.69;;;1.01;88.49
29239;BME280;16267;48.194;11.546;2023-01-26T00:43:11;96320.97;;;1.01;88.43
29239;BME280;16267;48.194;11.546;2023-01-26T00:45:37;96320.97;;;1.01;88.65
29239;BME280;16267;48.194;11.546;2023-01-26T00:48:03;96320.53;;;0.99;88.49
29239;BME280;16267;48.194;11.546;2023-01-26T00:50:29;96314.16;;;1.00;88.79
29239;BME280;16267;48.194;11.546;2023-01-26T00:52:55;96309.97;;;0.99;88.55
29239;BME280;16267;48.194;11.546;2023-01-26T00:55:20;96309.66;;;1.01;88.83
29239;BME280;16267;48.194;11.546;2023-01-26T00:57:48;96314.47;;;0.99;88.66
29239;BME280;16267;48.194;11.546;2023-01-26T01:00:16;96307.31;;;0.99;88.67
29239;BME280;16267;48.194;11.546;2023-01-26T01:02:42;96297.84;;;0.98;88.59
29239;BME280;16267;48.194;11.546;2023-01-26T01:05:08;96298.97;;;0.97;88.38
29239;BME280;16267;48.194;11.546;2023-01-26T01:07:34;96298.06;;;0.93;87.06
29239;BME280;16267;48.194;11.546;2023-01-26T01:10:00;96300.72;;;0.93;88.06
29239;BME280;16267;48.194;11.546;2023-01-26T01:12:26;96301.81;;;0.92;88.10
29239;BME280;16267;48.194;11.546;2023-01-26T01:14:52;96293.88;;;0.92;88.56
29239;BME280;16267;48.194;11.546;2023-01-26T01:17:18;96301.81;;;0.92;88.16
29239;BME280;16267;48.194;11.546;2023-01-26T01:19:44;96299.94;;;0.93;88.26
29239;BME280;16267;48.194;11.546;2023-01-26T01:22:09;96297.63;;;0.91;87.93
29239;BME280;16267;48.194;11.546;2023-01-26T01:24:35;96300.25;;;0.91;88.21
29239;BME280;16267;48.194;11.546;2023-01-26T01:27:02;96298.72;;;0.90;88.57
29239;BME280;16267;48.194;11.546;2023-01-26T01:29:28;96303.69;;;0.92;88.65
29239;BME280;16267;48.194;11.546;2023-01-26T01:31:53;96300.25;;;0.91;87.97
29239;BME280;16267;48.194;11.546;2023-01-26T01:34:19;96298.72;;;0.90;87.71
29239;BME280;16267;48.194;11.546;2023-01-26T01:36:45;96297.97;;;0.89;87.79
29239;BME280;16267;48.194;11.546;2023-01-26T01:39:10;96304.31;;;0.88;86.94
29239;BME280;16267;48.194;11.546;2023-01-26T01:41:36;96300.50;;;0.86;87.26
29239;BME280;16267;48.194;11.546;2023-01-26T01:44:18;96298.16;;;0.84;87.31
29239;BME280;16267;48.194;11.546;2023-01-26T01:47:21;96300.81;;;0.84;87.83
29239;BME280;16267;48.194;11.546;2023-01-26T01:49:52;96302.34;;;0.85;88.31
29239;BME280;16267;48.194;11.546;2023-01-26T01:52:29;96298.63;;;0.86;88.29
29239;BME280;16267;48.194;11.546;2023-01-26T01:55:08;96299.38;;;0.87;88.37
29239;BME280;16267;48.194;11.546;2023-01-26T01:57:53;96295.97;;;0.86;88.40
29239;BME280;16267;48.194;11.546;2023-01-26T02:00:22;96304.66;;;0.87;88.19
29239;BME280;16267;48.194;11.546;2023-01-26T02:09:32;96289.59;;;0.87;87.52
29239;BME280;16267;48.194;11.546;2023-01-26T02:12:35;96291.00;;;0.85;86.82
29239;BME280;16267;48.194;11.546;2023-01-26T02:15:01;96283.84;;;0.85;87.73
29239;BME280;16267;48.194;11.546;2023-01-26T02:17:28;96284.97;;;0.84;87.72
29239;BME280;16267;48.194;11.546;2023-01-26T02:25:40;96275.50;;;0.83;87.92
29239;BME280;16267;48.194;11.546;2023-01-26T02:28:09;96267.56;;;0.83;87.46
29239;BME280;16267;48.194;11.546;2023-01-26T02:30:35;96264.59;;;0.85;88.00
29239;BME280;16267;48.194;11.546;2023-01-26T02:33:01;96261.19;;;0.84;88.02
29239;BME280;16267;48.194;11.546;2023-01-26T02:35:26;96254.78;;;0.85;88.02
29239;BME280;16267;48.194;11.546;2023-01-26T02:37:52;96255.56;;;0.86;88.04
29239;BME280;16267;48.194;11.546;2023-01-26T02:40:43;96253.69;;;0.86;88.06
29239;BME280;16267;48.194;11.546;2023-01-26T02:43:12;96241.25;;;0.87;88.11
29239;BME280;16267;48.194;11.546;2023-01-26T02:45:39;96242.00;;;0.87;87.49
29239;BME280;16267;48.194;11.546;2023-01-26T02:48:05;96237.06;;;0.86;87.76
29239;BME280;16267;48.194;11.546;2023-01-26T02:50:33;96238.59;;;0.87;87.48
29239;BME280;16267;48.194;11.546;2023-01-26T02:53:00;96228.34;;;0.85;87.45
29239;BME280;16267;48.194;11.546;2023-01-26T02:55:26;96223.88;;;0.86;87.24
29239;BME280;16267;48.194;11.546;2023-01-26T02:57:58;96227.59;;;0.85;87.00
29239;BME280;16267;48.194;11.546;2023-01-26T03:00:31;96220.31;;;0.82;86.26
29239;BME280;16267;48.194;11.546;2023-01-26T03:03:01;96221.75;;;0.79;86.13
29239;BME280;16267;48.194;11.546;2023-01-26T03:05:29;96211.94;;;0.80;86.50
29239;BME280;16267;48.194;11.546;2023-01-26T03:07:55;96214.59;;;0.80;86.96
29239;BME280;16267;48.194;11.546;2023-01-26T03:10:20;96216.91;;;0.81;86.93
29239;BME280;16267;48.194;11.546;2023-01-26T03:12:48;96219.13;;;0.79;86.74
29239;BME280;16267;48.194;11.546;2023-01-26T03:15:14;96214.94;;;0.78;86.71
29239;BME280;16267;48.194;11.546;2023-01-26T03:18:08;96212.28;;;0.78;86.78
29239;BME280;16267;48.194;11.546;2023-01-26T03:21:02;96203.25;;;0.79;86.85
29239;BME280;16267;48.194;11.546;2023-01-26T03:23:46;96203.25;;;0.79;87.11
29239;BME280;16267;48.194;11.546;2023-01-26T03:26:48;96206.34;;;0.81;87.51
29239;BME280;16267;48.194;11.546;2023-01-26T03:29:33;96204.47;;;0.82;87.40
29239;BME280;16267;48.194;11.546;2023-01-26T03:31:59;96201.06;;;0.81;87.13
29239;BME280;16267;48.194;11.546;2023-01-26T03:34:25;96197.66;;;0.81;87.21
29239;BME280;16267;48.194;11.546;2023-01-26T03:36:52;96195.78;;;0.81;87.26
29239;BME280;16267;48.194;11.546;2023-01-26T03:39:18;96197.31;;;0.82;87.26
29239;BME280;16267;48.194;11.546;2023-01-26T03:42:03;96202.28;;;0.84;87.45
29239;BME280;16267;48.194;11.546;2023-01-26T03:44:47;96203.34;;;0.83;87.42
29239;BME280;16267;48.194;11.546;2023-01-26T03:47:35;96207.88;;;0.82;86.89
29239;BME280;16267;48.194;11.546;2023-01-26T03:50:19;96209.00;;;0.81;86.72
29239;BME280;16267;48.194;11.546;2023-01-26T03:53:13;96202.59;;;0.82;86.56
29239;BME280;16267;48.194;11.546;2023-01-26T03:56:09;96196.88;;;0.80;86.74
29239;BME280;16267;48.194;11.546;2023-01-26T03:58:56;96198.41;;;0.81;87.06
29239;BME280;16267;48.194;11.546;2023-01-26T04:01:25;96201.81;;;0.82;86.96
29239;BME280;16267;48.194;11.546;2023-01-26T04:03:54;96198.41;;;0.81;86.84
29239;BME280;16267;48.194;11.546;2023-01-26T04:06:42;96204.03;;;0.80;86.76
29239;BME280;16267;48.194;11.546;2023-01-26T04:09:26;96198.41;;;0.81;86.80
29239;BME280;16267;48.194;11.546;2023-01-26T04:11:54;96196.53;;;0.82;86.92
29239;BME280;16267;48.194;11.546;2023-01-26T04:14:20;96193.91;;;0.82;86.94
29239;BME280;16267;48.194;11.546;2023-01-26T04:17:06;96192.03;;;0.82;86.83
29239;BME280;16267;48.194;11.546;2023-01-26T04:19:51;96184.88;;;0.83;87.09
29239;BME280;16267;48.194;11.546;2023-01-26T04:22:40;96181.47;;;0.82;87.19
29239;BME280;16267;48.194;11.546;2023-01-26T04:25:18;96188.28;;;0.83;87.32
29239;BME280;16267;48.194;11.546;2023-01-26T04:27:44;96186.41;;;0.84;87.20
29239;BME280;16267;48.194;11.546;2023-01-26T04:30:15;96181.13;;;0.84;87.36
29239;BME280;16267;48.194;11.546;2023-01-26T04:32:41;96181.91;;;0.84;86.78
29239;BME280;16267;48.194;11.546;2023-01-26T04:35:09;96183.78;;;0.84;86.65
29239;BME280;16267;48.194;11.546;2023-01-26T04:37:35;96178.50;;;0.84;86.84
29239;BME280;16267;48.194;11.546;2023-01-26T04:40:01;96180.38;;;0.83;86.90
29239;BME280;16267;48.194;11.546;2023-01-26T04:42:28;96179.56;;;0.83;86.69
29239;BME280;16267;48.194;11.546;2023-01-26T04:44:54;96178.50;;;0.84;86.61
29239;BME280;16267;48.194;11.546;2023-01-26T04:47:21;96175.09;;;0.83;86.88
29239;BME280;16267;48.194;11.546;2023-01-26T04:49:47;96172.44;;;0.83;86.60
29239;BME280;16267;48.194;11.546;2023-01-26T04:52:13;96173.53;;;0.82;86.54
29239;BME280;16267;48.194;11.546;2023-01-26T04:54:39;96178.81;;;0.82;86.13
29239;BME280;16267;48.194;11.546;2023-01-26T04:57:06;96177.59;;;0.80;86.22
29239;BME280;16267;48.194;11.546;2023-01-26T04:59:32;96176.06;;;0.79;86.23
29239;BME280;16267;48.194;11.546;2023-01-26T05:01:58;96178.72;;;0.79;86.46
29239;BME280;16267;48.194;11.546;2023-01-26T05:04:24;96171.91;;;0.78;86.44
29239;BME280;16267;48.194;11.546;2023-01-26T05:06:50;96181.34;;;0.79;86.61
29239;BME280;16267;48.194;11.546;2023-01-26T05:09:16;96176.38;;;0.77;86.22
29239;BME280;16267;48.194;11.546;2023-01-26T05:11:41;96175.97;;;0.75;85.97
29239;BME280;16267;48.194;11.546;2023-01-26T05:14:07;96182.78;;;0.76;86.13
29239;BME280;16267;48.194;11.546;2023-01-26T05:16:33;96181.25;;;0.75;86.20
29239;BME280;16267;48.194;11.546;2023-01-26T05:18:59;96183.91;;;0.75;86.16
29239;BME280;16267;48.194;11.546;2023-01-26T05:21:24;96182.34;;;0.74;86.09
29239;BME280;16267;48.194;11.546;2023-01-26T05:23:52;96181.56;;;0.74;86.34
29239;BME280;16267;48.194;11.546;2023-01-26T05:26:18;96181.13;;;0.72;86.29
29239;BME280;16267;48.194;11.546;2023-01-26T05:28:44;96178.47;;;0.72;85.98
29239;BME280;16267;48.194;11.546;2023-01-26T05:31:10;96180.38;;;0.71;86.47
29239;BME280;16267;48.194;11.546;2023-01-26T05:33:36;96173.19;;;0.72;86.57
29239;BME280;16267;48.194;11.546;2023-01-26T05:36:07;96174.31;;;0.71;86.52
29239;BME280;16267;48.194;11.546;2023-01-26T05:38:33;96183.00;;;0.71;86.56
29239;BME280;16267;48.194;11.546;2023-01-26T05:40:59;96180.38;;;0.71;86.49
29239;BME280;16267;48.194;11.546;2023-01-26T05:43:25;96179.28;;;0.72;86.63
29239;BME280;16267;48.194;11.546;2023-01-26T05:45:51;96177.72;;;0.71;86.45
29239;BME280;16267;48.194;11.546;2023-01-26T05:48:17;96178.47;;;0.72;86.10
29239;BME280;16267;48.194;11.546;2023-01-26T05:50:43;96180.38;;;0.71;86.12
29239;BME280;16267;48.194;11.546;2023-01-26T05:53:08;96177.28;;;0.69;85.96
29239;BME280;16267;48.194;11.546;2023-01-26T05:55:34;96173.88;;;0.69;85.99
29239;BME280;16267;48.194;11.546;2023-01-26T05:58:00;96171.22;;;0.69;86.09
29239;BME280;16267;48.194;11.546;2023-01-26T06:00:26;96181.03;;;0.68;86.27
29239;BME280;16267;48.194;11.546;2023-01-26T06:02:52;96187.06;;;0.69;86.30
29239;BME280;16267;48.194;11.546;2023-01-26T06:05:17;96184.78;;;0.67;85.92
29239;BME280;16267;48.194;11.546;2023-01-26T06:07:43;96191.91;;;0.66;86.20
29239;BME280;16267;48.194;11.546;2023-01-26T06:10:10;96184.34;;;0.65;86.29
29239;BME280;16267;48.194;11.546;2023-01-26T06:12:38;96187.75;;;0.65;86.61
29239;BME280;16267;48.194;11.546;2023-01-26T06:15:06;96189.28;;;0.66;86.40
29239;BME280;16267;48.194;11.546;2023-01-26T06:17:32;96181.34;;;0.66;86.59
29239;BME280;16267;48.194;11.546;2023-01-26T06:19:57;96190.06;;;0.67;86.83
29239;BME280;16267;48.194;11.546;2023-01-26T06:22:24;96183.66;;;0.68;86.83
29239;BME280;16267;48.194;11.546;2023-01-26T06:24:50;96186.00;;;0.70;86.85
29239;BME280;16267;48.194;11.546;2023-01-26T06:27:16;96178.06;;;0.70;86.94
29239;BME280;16267;48.194;11.546;2023-01-26T06:29:43;96179.59;;;0.71;86.57
29239;BME280;16267;48.194;11.546;2023-01-26T06:32:11;96177.72;;;0.71;86.49
29239;BME280;16267;48.194;11.546;2023-01-26T06:34:38;96187.22;;;0.72;86.63
29239;BME280;16267;48.194;11.546;2023-01-26T06:37:04;96181.13;;;0.72;86.65
29239;BME280;16267;48.194;11.546;2023-01-26T06:39:29;96188.28;;;0.71;86.54
29239;BME280;16267;48.194;11.546;2023-01-26T06:41:55;96182.25;;;0.71;86.13
29239;BME280;16267;48.194;11.546;2023-01-26T06:44:21;96181.47;;;0.70;85.98
29239;BME280;16267;48.194;11.546;2023-01-26T06:46:47;96187.53;;;0.71;86.11
29239;BME280;16267;48.194;11.546;2023-01-26T06:49:12;96180.72;;;0.70;85.80
29239;BME280;16267;48.194;11.546;2023-01-26T06:51:58;96180.72;;;0.70;85.90
29239;BME280;16267;48.194;11.546;2023-01-26T06:54:27;96174.22;;;0.67;85.41
29239;BME280;16267;48.194;11.546;2023-01-26T06:56:53;96172.34;;;0.68;85.62
29239;BME280;16267;48.194;11.546;2023-01-26T06:59:19;96168.94;;;0.67;85.78
29239;BME280;16267;48.194;11.546;2023-01-26T07:01:46;96174.53;;;0.65;85.75
29239;BME280;16267;48.194;11.546;2023-01-26T07:04:13;96165.50;;;0.66;85.80
29239;BME280;16267;48.194;11.546;2023-01-26T07:06:40;96172.66;;;0.66;86.31
29239;BME280;16267;48.194;11.546;2023-01-26T07:09:07;96176.06;;;0.66;85.85
29239;BME280;16267;48.194;11.546;2023-01-26T07:11:33;96168.13;;;0.66;86.33
29239;BME280;16267;48.194;11.546;2023-01-26T07:13:59;96177.63;;;0.68;86.38
29239;BME280;16267;48.194;11.546;2023-01-26T07:16:25;96173.09;;;0.68;86.47
29239;BME280;16267;48.194;11.546;2023-01-26T07:18:52;96173.53;;;0.70;86.54
29239;BME280;16267;48.194;11.546;2023-01-26T07:21:19;96180.38;;;0.71;86.36
29239;BME280;16267;48.194;11.546;2023-01-26T07:23:46;96174.31;;;0.71;86.08
29239;BME280;16267;48.194;11.546;2023-01-26T07:26:12;96172.00;;;0.69;86.21
29239;BME280;16267;48.194;11.546;2023-01-26T07:28:39;96177.28;;;0.69;85.25
29239;BME280;16267;48.194;11.546;2023-01-26T07:31:06;96176.50;;;0.69;85.47
29239;BME280;16267;48.194;11.546;2023-01-26T07:33:33;96173.88;;;0.69;85.56
29239;BME280;16267;48.194;11.546;2023-01-26T07:36:00;96172.78;;;0.70;85.64
29239;BME280;16267;48.194;11.546;2023-01-26T07:38:27;96175.44;;;0.70;85.86
29239;BME280;16267;48.194;11.546;2023-01-26T07:40:56;96173.53;;;0.70;85.72
29239;BME280;16267;48.194;11.546;2023-01-26T07:43:22;96170.56;;;0.72;86.16
29239;BME280;16267;48.194;11.546;2023-01-26T07:45:51;96160.00;;;0.72;86.03
29239;BME280;16267;48.194;11.546;2023-01-26T07:48:19;96170.25;;;0.73;85.82
29239;BME280;16267;48.194;11.546;2023-01-26T07:50:46;96166.50;;;0.74;86.01
29239;BME280;16267;48.194;11.546;2023-01-26T07:53:13;96163.06;;;0.74;85.63
29239;BME280;16267;48.194;11.546;2023-01-26T07:55:40;96158.56;;;0.74;85.70
29239;BME280;16267;48.194;11.546;2023-01-26T07:58:10;96155.91;;;0.74;85.62
29239;BME280;16267;48.194;11.546;2023-01-26T08:00:36;96161.19;;;0.74;85.53
29239;BME280;16267;48.194;11.546;2023-01-26T08:03:02;96163.84;;;0.74;85.48
29239;BME280;16267;48.194;11.546;2023-01-26T08:05:28;96160.44;;;0.74;85.31
29239;BME280;16267;48.194;11.546;2023-01-26T08:08:01;96153.63;;;0.73;85.46
29239;BME280;16267;48.194;11.546;2023-01-26T08:10:27;96159.66;;;0.73;85.39
29239;BME280;16267;48.194;11.546;2023-01-26T08:12:59;96153.28;;;0.74;85.56
29239;BME280;16267;48.194;11.546;2023-01-26T08:15:26;96151.75;;;0.73;85.07
29239;BME280;16267;48.194;11.546;2023-01-26T08:17:52;96153.63;;;0.73;85.41
29239;BME280;16267;48.194;11.546;2023-01-26T08:20:18;96154.03;;;0.75;85.58
29239;BME280;16267;48.194;11.546;2023-01-26T08:22:45;96145.34;;;0.74;85.28
29239;BME280;16267;48.194;11.546;2023-01-26T08:25:10;96145.34;;;0.74;85.59
29239;BME280;16267;48.194;11.546;2023-01-26T08:27:36;96140.84;;;0.75;85.27
29239;BME280;16267;48.194;11.546;2023-01-26T08:30:02;96141.63;;;0.75;85.27
29239;BME280;16267;48.194;11.546;2023-01-26T08:32:29;96145.78;;;0.76;85.40
29239;BME280;16267;48.194;11.546;2023-01-26T08:34:55;96137.09;;;0.76;84.91
29239;BME280;16267;48.194;11.546;2023-01-26T08:37:21;96133.25;;;0.73;84.52
29239;BME280;16267;48.194;11.546;2023-01-26T08:39:46;96140.06;;;0.74;84.37
29239;BME280;16267;48.194;11.546;2023-01-26T08:42:12;96145.34;;;0.74;84.99
29239;BME280;16267;48.194;11.546;2023-01-26T08:44:38;96142.72;;;0.74;85.07
29239;BME280;16267;48.194;11.546;2023-01-26T08:47:04;96154.03;;;0.75;84.80
29239;BME280;16267;48.194;11.546;2023-01-26T08:49:38;96144.59;;;0.74;84.63
29239;BME280;16267;48.194;11.546;2023-01-26T08:52:04;96143.47;;;0.75;84.76
29239;BME280;16267;48.194;11.546;2023-01-26T08:54:30;96147.69;;;0.76;84.80
29239;BME280;16267;48.194;11.546;2023-01-26T08:56:57;96144.28;;;0.75;84.73
29239;BME280;16267;48.194;11.546;2023-01-26T08:59:27;96147.31;;;0.77;84.80
29239;BME280;16267;48.194;11.546;2023-01-26T09:01:52;96143.59;;;0.78;85.29
29239;BME280;16267;48.194;11.546;2023-01-26T09:04:20;96138.31;;;0.78;85.19
29239;BME280;16267;48.194;11.546;2023-01-26T09:06:45;96150.41;;;0.79;85.40
29239;BME280;16267;48.194;11.546;2023-01-26T09:09:11;96138.41;;;0.82;85.18
29239;BME280;16267;48.194;11.546;2023-01-26T09:11:39;96139.94;;;0.83;85.18
29239;BME280;16267;48.194;11.546;2023-01-26T09:14:05;96142.59;;;0.83;85.11
29239;BME280;16267;48.194;11.546;2023-01-26T09:16:31;96136.22;;;0.84;85.26
29239;BME280;16267;48.194;11.546;2023-01-26T09:18:56;96137.75;;;0.85;85.36
29239;BME280;16267;48.194;11.546;2023-01-26T09:21:22;96146.88;;;0.87;85.40
29239;BME280;16267;48.194;11.546;2023-01-26T09:23:49;96143.91;;;0.89;85.30
29239;BME280;16267;48.194;11.546;2023-01-26T09:26:14;96147.31;;;0.89;85.26
29239;BME280;16267;48.194;11.546;2023-01-26T09:28:40;96146.22;;;0.91;85.13
29239;BME280;16267;48.194;11.546;2023-01-26T09:31:09;96151.19;;;0.92;85.09
29239;BME280;16267;48.194;11.546;2023-01-26T09:33:36;96151.19;;;0.92;85.30
29239;BME280;16267;48.194;11.546;2023-01-26T09:36:04;96144.78;;;0.93;84.93
29239;BME280;16267;48.194;11.546;2023-01-26T09:38:31;96158.00;;;0.93;84.84
29239;BME280;16267;48.194;11.546;2023-01-26T09:43:54;96159.53;;;0.94;84.74
29239;BME280;16267;48.194;11.546;2023-01-26T09:49:12;96159.97;;;0.96;84.67
29239;BME280;16267;48.194;11.546;2023-01-26T09:54:57;96151.72;;;0.98;84.55
29239;BME280;16267;48.194;11.546;2023-01-26T09:57:54;96151.72;;;0.98;83.97
29239;BME280;16267;48.194;11.546;2023-01-26T10:00:26;96139.28;;;0.98;84.41
29239;BME280;16267;48.194;11.546;2023-01-26T10:06:25;96142.34;;;1.00;84.49
29239;BME280;16267;48.194;11.546;2023-01-26T10:08:58;96142.00;;;1.02;84.29
29239;BME280;16267;48.194;11.546;2023-01-26T10:11:36;96149.94;;;1.02;84.27
29239;BME280;16267;48.194;11.546;2023-01-26T10:14:45;96138.59;;;1.01;83.52
29239;BME280;16267;48.194;11.546;2023-01-26T10:17:20;96139.38;;;1.02;83.83
29239;BME280;16267;48.194;11.546;2023-01-26T10:19:59;96137.47;;;1.02;84.11
29239;BME280;16267;48.194;11.546;2023-01-26T10:23:20;96135.63;;;1.03;84.08
29239;BME280;16267;48.194;11.546;2023-01-26T10:25:48;96134.53;;;1.04;83.99
29239;BME280;16267;48.194;11.546;2023-01-26T10:28:44;96137.94;;;1.04;83.80
29239;BME280;16267;48.194;11.546;2023-01-26T10:31:27;96126.59;;;1.04;83.73
29239;BME280;16267;48.194;11.546;2023-01-26T10:36:32;96127.34;;;1.04;83.56
29239;BME280;16267;48.194;11.546;2023-01-26T10:39:10;96122.84;;;1.05;83.74
29239;BME280;16267;48.194;11.546;2023-01-26T10:41:37;96119.09;;;1.06;83.68
29239;BME280;16267;48.194;11.546;2023-01-26T10:46:40;96122.50;;;1.06;83.44
29239;BME280;16267;48.194;11.546;2023-01-26T10:54:29;96116.56;;;1.09;83.37
29239;BME280;16267;48.194;11.546;2023-01-26T10:56:57;96108.63;;;1.09;83.32
29239;BME280;16267;48.194;11.546;2023-01-26T11:02:17;96108.31;;;1.11;83.22
29239;BME280;16267;48.194;11.546;2023-01-26T11:05:24;96108.31;;;1.11;83.01
29239;BME280;16267;48.194;11.546;2023-01-26T11:07:53;96105.31;;;1.13;82.57
29239;BME280;16267;48.194;11.546;2023-01-26T11:10:33;96104.44;;;1.08;81.36
29239;BME280;16267;48.194;11.546;2023-01-26T11:13:26;96100.69;;;1.09;81.62
29239;BME280;16267;48.194;11.546;2023-01-26T11:16:13;96099.56;;;1.10;81.57
29239;BME280;16267;48.194;11.546;2023-01-26T11:18:58;96108.31;;;1.11;82.18
29239;BME280;16267;48.194;11.546;2023-01-26T11:21:35;96105.31;;;1.13;82.32
29239;BME280;16267;48.194;11.546;2023-01-26T11:29:55;96116.66;;;1.13;82.23
29239;BME280;16267;48.194;11.546;2023-01-26T11:38:39;96105.75;;;1.15;82.28
29239;BME280;16267;48.194;11.546;2023-01-26T11:47:04;96100.47;;;1.15;81.95
29239;BME280;16267;48.194;11.546;2023-01-26T12:01:00;96097.06;;;1.14;81.90
29239;BME280;16267;48.194;11.546;2023-01-26T12:03:49;96092.84;;;1.13;81.27
29239;BME280;16267;48.194;11.546;2023-01-26T12:06:36;96092.09;;;1.13;81.03
29239;BME280;16267;48.194;11.546;2023-01-26T12:09:28;96089.78;;;1.11;81.10
29239;BME280;16267;48.194;11.546;2023-01-26T12:18:04;96078.00;;;1.08;81.97
29239;BME280;16267;48.194;11.546;2023-01-26T12:20:56;96077.66;;;1.10;81.90
29239;BME280;16267;48.194;11.546;2023-01-26T12:24:16;96074.59;;;1.08;81.60
29239;BME280;16267;48.194;11.546;2023-01-26T12:26:49;96066.31;;;1.09;81.90
29239;BME280;16267;48.194;11.546;2023-01-26T12:29:30;96064.81;;;1.08;82.35
29239;BME280;16267;48.194;11.546;2023-01-26T12:32:09;96068.66;;;1.11;82.29
29239;BME280;16267;48.194;11.546;2023-01-26T12:34:35;96065.22;;;1.10;82.17
29239;BME280;16267;48.194;11.546;2023-01-26T12:39:53;96066.00;;;1.11;82.67
29239;BME280;16267;48.194;11.546;2023-01-26T12:45:01;96065.66;;;1.13;82.08
29239;BME280;16267;48.194;11.546;2023-01-26T12:47:42;96057.72;;;1.13;82.57
29239;BME280;16267;48.194;11.546;2023-01-26T12:50:39;96063.78;;;1.13;82.26
29239;BME280;16267;48.194;11.546;2023-01-26T12:53:38;96058.47;;;1.13;82.33
29239;BME280;16267;48.194;11.546;2023-01-26T12:56:32;96067.97;;;1.14;82.53
29239;BME280;16267;48.194;11.546;2023-01-26T12:59:08;96066.09;;;1.15;82.32
29239;BME280;16267;48.194;11.546;2023-01-26T13:01:40;96063.78;;;1.13;81.12
29239;BME280;16267;48.194;11.546;2023-01-26T13:04:13;96065.66;;;1.13;81.74
29239;BME280;16267;48.194;11.546;2023-01-26T13:06:40;96059.59;;;1.12;81.88
29239;BME280;16267;48.194;11.546;2023-01-26T13:09:22;96056.97;;;1.12;81.83
29239;BME280;16267;48.194;11.546;2023-01-26T13:11:57;96048.25;;;1.11;81.73
29239;BME280;16267;48.194;11.546;2023-01-26T13:14:37;96049.03;;;1.12;81.74
29239;BME280;16267;48.194;11.546;2023-01-26T13:25:04;96055.44;;;1.11;81.26
29239;BME280;16267;48.194;11.546;2023-01-26T13:33:22;96054.03;;;1.01;79.01
29239;BME280;16267;48.194;11.546;2023-01-26T13:35:52;96056.91;;;0.96;78.15
29239;BME280;16267;48.194;11.546;2023-01-26T13:38:41;96048.88;;;0.93;79.01
29239;BME280;16267;48.194;11.546;2023-01-26T13:41:19;96055.69;;;0.94;80.34
29239;BME280;16267;48.194;11.546;2023-01-26T13:43:53;96052.19;;;0.89;79.35
29239;BME280;16267;48.194;11.546;2023-01-26T13:46:54;96046.69;;;0.82;80.20
29239;BME280;16267;48.194;11.546;2023-01-26T13:49:40;96046.38;;;0.84;80.93
29239;BME280;16267;48.194;11.546;2023-01-26T13:52:24;96052.09;;;0.86;81.73
29239;BME280;16267;48.194;11.546;2023-01-26T13:54:53;96044.25;;;0.89;81.84
29239;BME280;16267;48.194;11.546;2023-01-26T13:57:28;96049.56;;;0.89;82.08
29239;BME280;16267;48.194;11.546;2023-01-26T13:59:57;96042.81;;;0.92;82.22
29239;BME280;16267;48.194;11.546;2023-01-26T14:02:30;96052.28;;;0.93;82.30
29239;BME280;16267;48.194;11.546;2023-01-26T14:04:57;96053.03;;;0.94;82.43
29239;BME280;16267;48.194;11.546;2023-01-26T14:07:41;96047.44;;;0.95;82.10
29239;BME280;16267;48.194;11.546;2023-01-26T14:10:16;96044.78;;;0.95;82.03
29239;BME280;16267;48.194;11.546;2023-01-26T14:12:47;96045.56;;;0.96;82.32
29239;BME280;16267;48.194;11.546;2023-01-26T14:15:28;96047.09;;;0.97;82.02
29239;BME280;16267;48.194;11.546;2023-01-26T14:18:03;96046.75;;;0.98;82.49
29239;BME280;16267;48.194;11.546;2023-01-26T14:20:38;96049.41;;;0.98;82.35
29239;BME280;16267;48.194;11.546;2023-01-26T14:23:17;96048.28;;;0.99;81.87
29239;BME280;16267;48.194;11.546;2023-01-26T14:26:30;96048.66;;;0.98;81.62
29239;BME280;16267;48.194;11.546;2023-01-26T14:29:00;96045.66;;;0.99;81.84
29239;BME280;16267;48.194;11.546;2023-01-26T14:31:28;96049.41;;;0.98;81.85
29239;BME280;16267;48.194;11.546;2023-01-26T14:33:57;96049.41;;;0.98;80.96
29239;BME280;16267;48.194;11.546;2023-01-26T14:36:29;96050.53;;;0.97;80.64
29239;BME280;16267;48.194;11.546;2023-01-26T14:38:59;96053.81;;;0.94;79.94
29239;BME280;16267;48.194;11.546;2023-01-26T14:41:30;96054.47;;;0.91;79.08
29239;BME280;16267;48.194;11.546;2023-01-26T14:43:58;96050.91;;;0.83;78.24
29239;BME280;16267;48.194;11.546;2023-01-26T14:47:15;96053.31;;;0.76;77.91
29239;BME280;16267;48.194;11.546;2023-01-26T14:49:58;96043.88;;;0.75;79.47
29239;BME280;16267;48.194;11.546;2023-01-26T14:52:35;96047.59;;;0.74;79.63
29239;BME280;16267;48.194;11.546;2023-01-26T14:55:19;96042.75;;;0.76;80.84
29239;BME280;16267;48.194;11.546;2023-01-26T14:57:46;96051.13;;;0.78;81.13